KGEU

Glendale Municipal Airport

Glendale, Arizona, USA
METAR KGEU 230250Z 27003KT 10SM FEW070 BKN200 26/08 A2985 RMK LAST
Observed Flight Rules
Oct-23 @ 02:50 UTC (2 hours ago) Visual Flight Rules
Wind Visibility Clouds
270° at 3 knots 10 miles
  • Few at 7,000' AGL
  • Broken at 20,000' AGL
Temperatures Readings
Current 26°C / 79°F
Dewpoint 8°C / 46°F
Humidity 32%
Altimeter 29.85" Hg
Pressure 1011 hPa
Elevation 325
METAR KGEU 230250Z 27003KT 10SM FEW070 BKN200 26/08 A2985 RMK LAST
Observed Flight Rules
Oct-23 @ 02:50 UTC
(2 hours ago)
VFR
Wind Visibility
270° at 3 knots 10 miles
Clouds
  • Few at 7,000' AGL
  • Broken at 20,000' AGL
Temperature Dewpoint
26°C / 79°F 8°C / 46°F
Humidity Altimeter Pressure
32% 29.85" Hg 1011 hPa